sensor_id;sensor_type;location;lat;lon;timestamp;pressure;altitude;pressure_sealevel;temperature;humidity
73628;BME280;61923;51.846;5.856;2023-01-13T00:01:47;100269.69;;;14.83;70.68
73628;BME280;61923;51.846;5.856;2023-01-13T00:04:13;100260.88;;;14.84;70.60
73628;BME280;61923;51.846;5.856;2023-01-13T00:06:38;100260.88;;;14.84;70.89
73628;BME280;61923;51.846;5.856;2023-01-13T00:09:09;100259.41;;;14.82;70.64
73628;BME280;61923;51.846;5.856;2023-01-13T00:11:35;100270.53;;;14.84;70.59
73628;BME280;61923;51.846;5.856;2023-01-13T00:14:00;100264.47;;;14.83;70.57
73628;BME280;61923;51.846;5.856;2023-01-13T00:16:25;100273.63;;;14.79;70.16
73628;BME280;61923;51.846;5.856;2023-01-13T00:18:52;100278.53;;;14.82;70.53
73628;BME280;61923;51.846;5.856;2023-01-13T00:21:19;100275.25;;;14.88;70.37
73628;BME280;61923;51.846;5.856;2023-01-13T00:23:46;100263.53;;;14.76;70.88
73628;BME280;61923;51.846;5.856;2023-01-13T00:26:15;100270.06;;;14.72;70.73
73628;BME280;61923;51.846;5.856;2023-01-13T00:28:41;100264.81;;;14.80;70.36
73628;BME280;61923;51.846;5.856;2023-01-13T00:31:10;100263.16;;;14.79;70.49
73628;BME280;61923;51.846;5.856;2023-01-13T00:33:36;100260.56;;;14.79;70.38
73628;BME280;61923;51.846;5.856;2023-01-13T00:36:04;100264.81;;;14.80;70.47
73628;BME280;61923;51.846;5.856;2023-01-13T00:38:31;100254.00;;;14.83;70.91
73628;BME280;61923;51.846;5.856;2023-01-13T00:41:07;100248.28;;;14.80;70.26
73628;BME280;61923;51.846;5.856;2023-01-13T00:43:34;100254.69;;;14.77;70.39
73628;BME280;61923;51.846;5.856;2023-01-13T00:46:00;100269.56;;;14.77;70.30
73628;BME280;61923;51.846;5.856;2023-01-13T00:48:28;100266.28;;;14.74;70.37
73628;BME280;61923;51.846;5.856;2023-01-13T00:50:59;100259.78;;;14.70;70.35
73628;BME280;61923;51.846;5.856;2023-01-13T00:53:25;100272.31;;;14.75;70.35
73628;BME280;61923;51.846;5.856;2023-01-13T00:56:01;100264.84;;;14.72;70.67
73628;BME280;61923;51.846;5.856;2023-01-13T00:58:27;100261.91;;;14.67;70.34
73628;BME280;61923;51.846;5.856;2023-01-13T01:00:52;100276.41;;;14.69;70.58
73628;BME280;61923;51.846;5.856;2023-01-13T01:03:18;100261.13;;;14.58;71.24
73628;BME280;61923;51.846;5.856;2023-01-13T01:05:43;100273.34;;;14.58;71.21
73628;BME280;61923;51.846;5.856;2023-01-13T01:08:08;100264.53;;;14.59;71.24
73628;BME280;61923;51.846;5.856;2023-01-13T01:10:34;100254.88;;;14.51;70.66
73628;BME280;61923;51.846;5.856;2023-01-13T01:12:59;100259.97;;;14.61;71.01
73628;BME280;61923;51.846;5.856;2023-01-13T01:15:24;100270.09;;;14.64;71.07
73628;BME280;61923;51.846;5.856;2023-01-13T01:17:50;100264.66;;;14.65;71.13
73628;BME280;61923;51.846;5.856;2023-01-13T01:20:16;100269.09;;;14.65;70.75
73628;BME280;61923;51.846;5.856;2023-01-13T01:22:41;100271.38;;;14.68;70.50
73628;BME280;61923;51.846;5.856;2023-01-13T01:25:07;100255.34;;;14.71;71.15
73628;BME280;61923;51.846;5.856;2023-01-13T01:27:33;100259.44;;;14.65;70.79
73628;BME280;61923;51.846;5.856;2023-01-13T01:29:58;100258.97;;;14.70;70.65
73628;BME280;61923;51.846;5.856;2023-01-13T01:32:23;100263.53;;;14.68;70.73
73628;BME280;61923;51.846;5.856;2023-01-13T01:34:50;100246.72;;;14.62;70.97
73628;BME280;61923;51.846;5.856;2023-01-13T01:37:15;100250.13;;;14.71;70.38
73628;BME280;61923;51.846;5.856;2023-01-13T01:39:41;100239.53;;;14.64;70.72
73628;BME280;61923;51.846;5.856;2023-01-13T01:42:14;100264.19;;;14.70;70.55
73628;BME280;61923;51.846;5.856;2023-01-13T01:45:02;100221.41;;;14.54;70.26
73628;BME280;61923;51.846;5.856;2023-01-13T01:47:34;100251.44;;;14.67;70.66
73628;BME280;61923;51.846;5.856;2023-01-13T01:50:00;100259.28;;;14.67;70.49
73628;BME280;61923;51.846;5.856;2023-01-13T01:52:34;100243.78;;;14.57;70.33
73628;BME280;61923;51.846;5.856;2023-01-13T01:57:45;100262.25;;;14.64;70.66
73628;BME280;61923;51.846;5.856;2023-01-13T02:00:13;100251.47;;;14.59;70.61
73628;BME280;61923;51.846;5.856;2023-01-13T02:02:41;100259.63;;;14.64;70.22
73628;BME280;61923;51.846;5.856;2023-01-13T02:05:08;100254.72;;;14.61;70.37
73628;BME280;61923;51.846;5.856;2023-01-13T02:07:36;100259.97;;;14.61;70.24
73628;BME280;61923;51.846;5.856;2023-01-13T02:10:06;100258.00;;;14.63;70.64
73628;BME280;61923;51.846;5.856;2023-01-13T02:12:32;100244.44;;;14.51;70.81
73628;BME280;61923;51.846;5.856;2023-01-13T02:15:08;100261.91;;;14.59;70.71
73628;BME280;61923;51.846;5.856;2023-01-13T02:17:57;100259.16;;;14.60;70.62
73628;BME280;61923;51.846;5.856;2023-01-13T02:32:41;100258.66;;;14.57;70.61
73628;BME280;61923;51.846;5.856;2023-01-13T02:37:43;100244.91;;;14.54;70.02
73628;BME280;61923;51.846;5.856;2023-01-13T02:40:25;100252.75;;;14.54;70.28
73628;BME280;61923;51.846;5.856;2023-01-13T02:43:07;100246.53;;;14.55;70.37
73628;BME280;61923;51.846;5.856;2023-01-13T02:48:22;100258.13;;;14.53;70.15
73628;BME280;61923;51.846;5.856;2023-01-13T02:50:54;100251.09;;;14.53;70.30
73628;BME280;61923;51.846;5.856;2023-01-13T02:53:26;100244.59;;;14.49;70.39
73628;BME280;61923;51.846;5.856;2023-01-13T02:55:54;100235.44;;;14.45;70.04
73628;BME280;61923;51.846;5.856;2023-01-13T02:58:25;100243.63;;;14.50;70.21
73628;BME280;61923;51.846;5.856;2023-01-13T03:00:52;100231.19;;;14.52;70.28
73628;BME280;61923;51.846;5.856;2023-01-13T03:03:17;100211.66;;;14.40;70.30
73628;BME280;61923;51.846;5.856;2023-01-13T03:05:45;100214.88;;;14.50;70.58
73628;BME280;61923;51.846;5.856;2023-01-13T03:11:13;100222.38;;;14.53;70.25
73628;BME280;61923;51.846;5.856;2023-01-13T03:13:50;100226.78;;;14.53;70.64
73628;BME280;61923;51.846;5.856;2023-01-13T03:24:33;100204.91;;;14.54;70.97
73628;BME280;61923;51.846;5.856;2023-01-13T03:27:04;100211.09;;;14.53;71.15
73628;BME280;61923;51.846;5.856;2023-01-13T03:29:38;100199.50;;;14.55;71.38
73628;BME280;61923;51.846;5.856;2023-01-13T03:32:15;100173.59;;;14.46;71.44
73628;BME280;61923;51.846;5.856;2023-01-13T03:35:01;100190.56;;;14.50;71.12
73628;BME280;61923;51.846;5.856;2023-01-13T03:37:32;100176.69;;;14.41;71.48
73628;BME280;61923;51.846;5.856;2023-01-13T03:40:21;100170.81;;;14.39;71.54
73628;BME280;61923;51.846;5.856;2023-01-13T03:42:54;100195.78;;;14.50;71.70
73628;BME280;61923;51.846;5.856;2023-01-13T03:45:42;100198.22;;;14.51;71.12
73628;BME280;61923;51.846;5.856;2023-01-13T03:48:15;100193.66;;;14.45;71.41
73628;BME280;61923;51.846;5.856;2023-01-13T03:50:48;100191.38;;;14.50;71.59
73628;BME280;61923;51.846;5.856;2023-01-13T03:53:24;100193.00;;;14.43;71.10
73628;BME280;61923;51.846;5.856;2023-01-13T03:56:00;100201.81;;;14.50;71.05
73628;BME280;61923;51.846;5.856;2023-01-13T03:58:38;100209.00;;;14.48;70.81
73628;BME280;61923;51.846;5.856;2023-01-13T04:06:24;100199.03;;;14.52;70.79
73628;BME280;61923;51.846;5.856;2023-01-13T04:08:55;100192.97;;;14.51;70.99
73628;BME280;61923;51.846;5.856;2023-01-13T04:11:31;100195.78;;;14.50;70.99
73628;BME280;61923;51.846;5.856;2023-01-13T04:14:00;100182.88;;;14.48;71.01
73628;BME280;61923;51.846;5.856;2023-01-13T04:16:27;100200.81;;;14.51;71.19
73628;BME280;61923;51.846;5.856;2023-01-13T04:18:53;100212.28;;;14.50;70.77
73628;BME280;61923;51.846;5.856;2023-01-13T04:21:18;100201.00;;;14.50;71.41
73628;BME280;61923;51.846;5.856;2023-01-13T04:23:43;100211.47;;;14.50;70.88
73628;BME280;61923;51.846;5.856;2023-01-13T04:26:09;100211.63;;;14.48;71.38
73628;BME280;61923;51.846;5.856;2023-01-13T04:28:35;100223.03;;;14.47;71.34
73628;BME280;61923;51.846;5.856;2023-01-13T04:31:00;100223.03;;;14.47;71.42
73628;BME280;61923;51.846;5.856;2023-01-13T04:33:26;100224.06;;;14.38;71.09
73628;BME280;61923;51.846;5.856;2023-01-13T04:35:51;100221.75;;;14.43;71.34
73628;BME280;61923;51.846;5.856;2023-01-13T04:38:19;100228.25;;;14.47;71.56
73628;BME280;61923;51.846;5.856;2023-01-13T04:40:45;100233.00;;;14.44;70.96
73628;BME280;61923;51.846;5.856;2023-01-13T04:43:11;100232.19;;;14.43;70.80
73628;BME280;61923;51.846;5.856;2023-01-13T04:45:36;100222.41;;;14.37;71.37
73628;BME280;61923;51.846;5.856;2023-01-13T04:48:02;100228.63;;;14.44;71.49
73628;BME280;61923;51.846;5.856;2023-01-13T04:50:28;100231.88;;;14.46;71.44
73628;BME280;61923;51.846;5.856;2023-01-13T04:52:53;100219.13;;;14.43;71.29
73628;BME280;61923;51.846;5.856;2023-01-13T04:55:20;100207.38;;;14.39;71.31
73628;BME280;61923;51.846;5.856;2023-01-13T04:57:46;100207.91;;;14.34;70.99
73628;BME280;61923;51.846;5.856;2023-01-13T05:00:14;100219.13;;;14.43;71.54
73628;BME280;61923;51.846;5.856;2023-01-13T05:02:40;100222.75;;;14.42;71.65
73628;BME280;61923;51.846;5.856;2023-01-13T05:05:06;100192.22;;;14.34;71.21
73628;BME280;61923;51.846;5.856;2023-01-13T05:07:31;100220.94;;;14.43;71.67
73628;BME280;61923;51.846;5.856;2023-01-13T05:09:57;100223.56;;;14.43;71.25
73628;BME280;61923;51.846;5.856;2023-01-13T05:12:22;100227.63;;;14.45;71.70
73628;BME280;61923;51.846;5.856;2023-01-13T05:15:08;100221.75;;;14.43;71.69
73628;BME280;61923;51.846;5.856;2023-01-13T05:17:52;100221.09;;;14.41;71.65
73628;BME280;61923;51.846;5.856;2023-01-13T05:20:18;100200.22;;;14.33;71.59
73628;BME280;61923;51.846;5.856;2023-01-13T05:22:43;100219.47;;;14.40;71.91
73628;BME280;61923;51.846;5.856;2023-01-13T05:25:27;100199.91;;;14.28;71.63
73628;BME280;61923;51.846;5.856;2023-01-13T05:27:57;100210.66;;;14.33;71.47
73628;BME280;61923;51.846;5.856;2023-01-13T05:30:26;100205.59;;;14.40;71.61
73628;BME280;61923;51.846;5.856;2023-01-13T05:32:51;100217.84;;;14.39;71.94
73628;BME280;61923;51.846;5.856;2023-01-13T05:35:17;100216.03;;;14.40;71.64
73628;BME280;61923;51.846;5.856;2023-01-13T05:37:43;100217.84;;;14.39;71.81
73628;BME280;61923;51.846;5.856;2023-01-13T05:40:11;100219.47;;;14.40;71.70
73628;BME280;61923;51.846;5.856;2023-01-13T05:43:08;100219.47;;;14.40;71.64
73628;BME280;61923;51.846;5.856;2023-01-13T05:45:58;100217.19;;;14.37;71.74
73628;BME280;61923;51.846;5.856;2023-01-13T05:48:27;100213.13;;;14.34;71.78
73628;BME280;61923;51.846;5.856;2023-01-13T05:50:53;100208.38;;;14.38;71.31
73628;BME280;61923;51.846;5.856;2023-01-13T05:53:19;100209.06;;;14.32;71.72
73628;BME280;61923;51.846;5.856;2023-01-13T05:55:45;100220.78;;;14.36;71.51
73628;BME280;61923;51.846;5.856;2023-01-13T05:58:13;100213.94;;;14.35;71.40
73628;BME280;61923;51.846;5.856;2023-01-13T06:00:39;100210.66;;;14.33;71.29
73628;BME280;61923;51.846;5.856;2023-01-13T06:03:04;100222.41;;;14.37;71.18
73628;BME280;61923;51.846;5.856;2023-01-13T06:05:31;100220.78;;;14.36;71.40
73628;BME280;61923;51.846;5.856;2023-01-13T06:07:57;100212.31;;;14.34;71.30
73628;BME280;61923;51.846;5.856;2023-01-13T06:10:25;100221.13;;;14.33;71.56
73628;BME280;61923;51.846;5.856;2023-01-13T06:12:51;100227.16;;;14.33;71.46
73628;BME280;61923;51.846;5.856;2023-01-13T06:15:16;100228.94;;;14.33;70.88
73628;BME280;61923;51.846;5.856;2023-01-13T06:17:42;100215.91;;;14.33;71.10
73628;BME280;61923;51.846;5.856;2023-01-13T06:20:08;100229.94;;;14.32;71.14
73628;BME280;61923;51.846;5.856;2023-01-13T06:22:36;100235.81;;;14.34;70.87
73628;BME280;61923;51.846;5.856;2023-01-13T06:25:07;100253.25;;;14.33;71.20
73628;BME280;61923;51.846;5.856;2023-01-13T06:27:35;100255.22;;;14.31;70.95
73628;BME280;61923;51.846;5.856;2023-01-13T06:30:02;100239.75;;;14.30;71.25
73628;BME280;61923;51.846;5.856;2023-01-13T06:32:32;100257.38;;;14.28;71.25
73628;BME280;61923;51.846;5.856;2023-01-13T06:35:03;100236.16;;;14.23;71.38
73628;BME280;61923;51.846;5.856;2023-01-13T06:37:31;100228.16;;;14.24;71.04
73628;BME280;61923;51.846;5.856;2023-01-13T06:40:00;100226.03;;;14.20;71.19
73628;BME280;61923;51.846;5.856;2023-01-13T06:42:28;100238.09;;;14.29;70.95
73628;BME280;61923;51.846;5.856;2023-01-13T06:45:13;100232.22;;;14.27;71.09
73628;BME280;61923;51.846;5.856;2023-01-13T06:47:39;100231.75;;;14.23;70.84
73628;BME280;61923;51.846;5.856;2023-01-13T06:50:05;100235.84;;;14.26;70.82
73628;BME280;61923;51.846;5.856;2023-01-13T06:52:30;100235.16;;;14.32;70.84
73628;BME280;61923;51.846;5.856;2023-01-13T06:54:56;100239.41;;;14.33;70.85
73628;BME280;61923;51.846;5.856;2023-01-13T06:57:22;100254.56;;;14.38;70.42
73628;BME280;61923;51.846;5.856;2023-01-13T06:59:47;100238.09;;;14.29;70.83
73628;BME280;61923;51.846;5.856;2023-01-13T07:02:13;100249.19;;;14.31;70.84
73628;BME280;61923;51.846;5.856;2023-01-13T07:04:39;100234.53;;;14.30;70.41
73628;BME280;61923;51.846;5.856;2023-01-13T07:07:04;100228.66;;;14.28;70.51
73628;BME280;61923;51.846;5.856;2023-01-13T07:09:29;100226.03;;;14.28;70.38
73628;BME280;61923;51.846;5.856;2023-01-13T07:11:55;100230.25;;;14.29;70.39
73628;BME280;61923;51.846;5.856;2023-01-13T07:14:20;100247.91;;;14.27;70.39
73628;BME280;61923;51.846;5.856;2023-01-13T07:17:04;100237.47;;;14.19;70.12
73628;BME280;61923;51.846;5.856;2023-01-13T07:19:30;100252.78;;;14.22;70.38
73628;BME280;61923;51.846;5.856;2023-01-13T07:21:55;100260.31;;;14.25;70.28
73628;BME280;61923;51.846;5.856;2023-01-13T07:24:20;100247.75;;;14.28;70.05
73628;BME280;61923;51.846;5.856;2023-01-13T07:26:46;100267.81;;;14.28;70.22
73628;BME280;61923;51.846;5.856;2023-01-13T07:29:12;100255.88;;;14.25;70.27
73628;BME280;61923;51.846;5.856;2023-01-13T07:31:38;100261.28;;;14.24;70.43
73628;BME280;61923;51.846;5.856;2023-01-13T07:34:05;100238.78;;;14.14;70.58
73628;BME280;61923;51.846;5.856;2023-01-13T07:36:30;100264.72;;;14.24;70.57
73628;BME280;61923;51.846;5.856;2023-01-13T07:38:56;100283.16;;;14.23;70.63
73628;BME280;61923;51.846;5.856;2023-01-13T07:41:21;100262.09;;;14.24;70.67
73628;BME280;61923;51.846;5.856;2023-01-13T07:44:05;100274.00;;;14.27;70.54
73628;BME280;61923;51.846;5.856;2023-01-13T07:46:32;100270.09;;;14.31;70.23
73628;BME280;61923;51.846;5.856;2023-01-13T07:48:57;100265.53;;;14.33;69.05
73628;BME280;61923;51.846;5.856;2023-01-13T07:51:23;100271.38;;;14.35;68.87
73628;BME280;61923;51.846;5.856;2023-01-13T07:53:48;100288.38;;;14.31;68.89
73628;BME280;61923;51.846;5.856;2023-01-13T07:56:14;100295.06;;;14.25;68.88
73628;BME280;61923;51.846;5.856;2023-01-13T07:58:40;100278.44;;;14.26;68.72
73628;BME280;61923;51.846;5.856;2023-01-13T08:01:07;100291.31;;;14.36;68.28
73628;BME280;61923;51.846;5.856;2023-01-13T08:03:33;100295.56;;;14.37;68.03
73628;BME280;61923;51.846;5.856;2023-01-13T08:06:00;100296.88;;;14.33;68.39
73628;BME280;61923;51.846;5.856;2023-01-13T08:08:26;100288.72;;;14.36;67.90
73628;BME280;61923;51.846;5.856;2023-01-13T08:10:51;100289.84;;;14.50;67.29
73628;BME280;61923;51.846;5.856;2023-01-13T08:13:17;100292.94;;;14.62;66.85
73628;BME280;61923;51.846;5.856;2023-01-13T08:15:51;100298.31;;;14.68;66.55
73628;BME280;61923;51.846;5.856;2023-01-13T08:18:18;100306.63;;;14.80;66.25
73628;BME280;61923;51.846;5.856;2023-01-13T08:20:44;100301.03;;;14.91;65.70
73628;BME280;61923;51.846;5.856;2023-01-13T08:23:10;100311.81;;;14.97;65.50
73628;BME280;61923;51.846;5.856;2023-01-13T08:25:35;100308.53;;;15.03;64.84
73628;BME280;61923;51.846;5.856;2023-01-13T08:28:01;100303.47;;;14.93;65.27
73628;BME280;61923;51.846;5.856;2023-01-13T08:30:27;100305.81;;;14.88;65.39
73628;BME280;61923;51.846;5.856;2023-01-13T08:32:52;100303.50;;;14.85;64.98
73628;BME280;61923;51.846;5.856;2023-01-13T08:35:19;100303.94;;;15.05;64.71
73628;BME280;61923;51.846;5.856;2023-01-13T08:37:44;100303.63;;;15.00;64.44
73628;BME280;61923;51.846;5.856;2023-01-13T08:40:12;100295.72;;;14.68;65.43
73628;BME280;61923;51.846;5.856;2023-01-13T08:42:38;100314.81;;;14.52;66.38
73628;BME280;61923;51.846;5.856;2023-01-13T08:45:05;100296.31;;;14.87;64.88
73628;BME280;61923;51.846;5.856;2023-01-13T08:47:30;100305.03;;;14.63;65.55
73628;BME280;61923;51.846;5.856;2023-01-13T08:49:56;100302.72;;;14.60;66.01
73628;BME280;61923;51.846;5.856;2023-01-13T08:52:21;100303.53;;;14.77;65.58
73628;BME280;61923;51.846;5.856;2023-01-13T08:54:47;100310.91;;;14.57;65.71
73628;BME280;61923;51.846;5.856;2023-01-13T08:57:13;100308.28;;;14.48;66.34
73628;BME280;61923;51.846;5.856;2023-01-13T08:59:39;100293.75;;;14.38;65.98
73628;BME280;61923;51.846;5.856;2023-01-13T09:02:12;100310.25;;;14.38;66.09
73628;BME280;61923;51.846;5.856;2023-01-13T09:04:38;100308.97;;;14.34;66.45
73628;BME280;61923;51.846;5.856;2023-01-13T09:07:04;100322.47;;;14.38;66.18
73628;BME280;61923;51.846;5.856;2023-01-13T09:09:29;100321.38;;;14.32;66.50
73628;BME280;61923;51.846;5.856;2023-01-13T09:11:55;100303.41;;;14.21;66.88
73628;BME280;61923;51.846;5.856;2023-01-13T09:14:39;100323.97;;;14.32;66.50
73628;BME280;61923;51.846;5.856;2023-01-13T09:17:04;100318.41;;;14.35;65.92
73628;BME280;61923;51.846;5.856;2023-01-13T09:19:31;100323.31;;;14.38;66.21
73628;BME280;61923;51.846;5.856;2023-01-13T09:21:57;100319.06;;;14.29;66.30
73628;BME280;61923;51.846;5.856;2023-01-13T09:24:23;100329.50;;;14.37;66.29
73628;BME280;61923;51.846;5.856;2023-01-13T09:26:49;100340.78;;;14.38;66.30
73628;BME280;61923;51.846;5.856;2023-01-13T09:29:15;100342.91;;;14.34;66.11
73628;BME280;61923;51.846;5.856;2023-01-13T09:31:41;100330.00;;;14.32;66.54
73628;BME280;61923;51.846;5.856;2023-01-13T09:34:12;100340.13;;;14.27;66.25
73628;BME280;61923;51.846;5.856;2023-01-13T09:36:56;100339.31;;;14.35;65.75
73628;BME280;61923;51.846;5.856;2023-01-13T09:39:21;100352.06;;;14.38;65.74
73628;BME280;61923;51.846;5.856;2023-01-13T09:41:49;100354.81;;;14.28;65.54
73628;BME280;61923;51.846;5.856;2023-01-13T09:44:52;100366.41;;;14.34;65.65
73628;BME280;61923;51.846;5.856;2023-01-13T09:47:38;100385.19;;;14.38;65.47
73628;BME280;61923;51.846;5.856;2023-01-13T09:52:41;100384.88;;;14.32;65.86
73628;BME280;61923;51.846;5.856;2023-01-13T09:55:14;100389.94;;;14.34;65.90
73628;BME280;61923;51.846;5.856;2023-01-13T09:57:40;100386.97;;;14.29;65.64
73628;BME280;61923;51.846;5.856;2023-01-13T10:00:25;100400.38;;;14.34;65.77
73628;BME280;61923;51.846;5.856;2023-01-13T10:03:29;100393.19;;;14.36;65.65
73628;BME280;61923;51.846;5.856;2023-01-13T10:08:34;100393.84;;;14.30;65.60
73628;BME280;61923;51.846;5.856;2023-01-13T10:11:04;100409.84;;;14.35;65.53
73628;BME280;61923;51.846;5.856;2023-01-13T10:14:02;100390.59;;;14.28;65.59
73628;BME280;61923;51.846;5.856;2023-01-13T10:17:10;100406.56;;;14.33;65.55
73628;BME280;61923;51.846;5.856;2023-01-13T10:19:56;100415.41;;;14.32;65.71
73628;BME280;61923;51.846;5.856;2023-01-13T10:28:11;100425.00;;;14.23;65.44
73628;BME280;61923;51.846;5.856;2023-01-13T10:30:42;100426.28;;;14.19;65.93
73628;BME280;61923;51.846;5.856;2023-01-13T10:33:18;100424.97;;;14.15;65.38
73628;BME280;61923;51.846;5.856;2023-01-13T10:38:25;100450.00;;;14.26;65.80
73628;BME280;61923;51.846;5.856;2023-01-13T10:40:55;100448.50;;;14.31;65.73
73628;BME280;61923;51.846;5.856;2023-01-13T10:43:21;100463.72;;;14.36;64.73
73628;BME280;61923;51.846;5.856;2023-01-13T10:45:57;100425.34;;;14.20;64.75
73628;BME280;61923;51.846;5.856;2023-01-13T10:48:31;100452.78;;;14.32;65.00
73628;BME280;61923;51.846;5.856;2023-01-13T10:50:57;100449.00;;;14.35;64.54
73628;BME280;61923;51.846;5.856;2023-01-13T10:53:24;100433.97;;;14.21;64.95
73628;BME280;61923;51.846;5.856;2023-01-13T10:56:03;100451.97;;;14.32;65.12
73628;BME280;61923;51.846;5.856;2023-01-13T10:58:29;100462.06;;;14.27;65.13
73628;BME280;61923;51.846;5.856;2023-01-13T11:01:00;100467.66;;;14.40;64.93
73628;BME280;61923;51.846;5.856;2023-01-13T11:03:35;100448.03;;;14.28;65.31
73628;BME280;61923;51.846;5.856;2023-01-13T11:06:02;100480.72;;;14.40;65.07
73628;BME280;61923;51.846;5.856;2023-01-13T11:08:41;100456.53;;;14.30;65.08
73628;BME280;61923;51.846;5.856;2023-01-13T11:14:02;100459.50;;;14.51;64.38
73628;BME280;61923;51.846;5.856;2023-01-13T11:16:50;100467.97;;;14.53;64.47
73628;BME280;61923;51.846;5.856;2023-01-13T11:19:18;100482.84;;;14.53;64.35
73628;BME280;61923;51.846;5.856;2023-01-13T11:32:39;100485.16;;;14.48;64.68
73628;BME280;61923;51.846;5.856;2023-01-13T11:35:16;100478.41;;;14.37;65.05
73628;BME280;61923;51.846;5.856;2023-01-13T11:37:48;100472.88;;;14.32;64.75
73628;BME280;61923;51.846;5.856;2023-01-13T11:40:38;100481.88;;;14.46;64.48
73628;BME280;61923;51.846;5.856;2023-01-13T11:43:41;100493.34;;;14.69;63.84
73628;BME280;61923;51.846;5.856;2023-01-13T11:46:11;100502.59;;;14.55;64.08
73628;BME280;61923;51.846;5.856;2023-01-13T11:48:39;100488.59;;;14.57;63.95
73628;BME280;61923;51.846;5.856;2023-01-13T12:04:47;100509.38;;;14.66;64.10
73628;BME280;61923;51.846;5.856;2023-01-13T12:10:32;100502.00;;;14.62;64.00
73628;BME280;61923;51.846;5.856;2023-01-13T12:26:57;100504.56;;;14.53;64.12
73628;BME280;61923;51.846;5.856;2023-01-13T12:29:31;100508.16;;;14.52;64.45
73628;BME280;61923;51.846;5.856;2023-01-13T12:32:00;100495.25;;;14.43;64.11
73628;BME280;61923;51.846;5.856;2023-01-13T12:38:00;100524.69;;;14.61;64.48
73628;BME280;61923;51.846;5.856;2023-01-13T12:40:40;100513.53;;;14.51;64.62
73628;BME280;61923;51.846;5.856;2023-01-13T12:43:14;100535.66;;;14.57;64.73
73628;BME280;61923;51.846;5.856;2023-01-13T12:51:29;100559.63;;;14.52;64.92
73628;BME280;61923;51.846;5.856;2023-01-13T12:54:00;100547.75;;;14.66;64.76
73628;BME280;61923;51.846;5.856;2023-01-13T12:56:40;100533.03;;;14.65;64.25
73628;BME280;61923;51.846;5.856;2023-01-13T13:01:50;100545.41;;;14.54;64.44
73628;BME280;61923;51.846;5.856;2023-01-13T13:04:20;100566.47;;;14.53;64.51
73628;BME280;61923;51.846;5.856;2023-01-13T13:06:51;100570.53;;;14.55;64.57
73628;BME280;61923;51.846;5.856;2023-01-13T13:09:32;100572.50;;;14.53;64.94
73628;BME280;61923;51.846;5.856;2023-01-13T13:15:29;100569.88;;;14.53;65.19
73628;BME280;61923;51.846;5.856;2023-01-13T13:26:27;100579.16;;;14.40;65.53
73628;BME280;61923;51.846;5.856;2023-01-13T13:32:09;100593.34;;;14.37;65.76
73628;BME280;61923;51.846;5.856;2023-01-13T13:35:01;100603.81;;;14.37;65.92
73628;BME280;61923;51.846;5.856;2023-01-13T13:37:40;100609.03;;;14.37;65.85
73628;BME280;61923;51.846;5.856;2023-01-13T13:40:31;100612.63;;;14.36;65.83
73628;BME280;61923;51.846;5.856;2023-01-13T13:43:15;100621.13;;;14.38;65.89
73628;BME280;61923;51.846;5.856;2023-01-13T13:45:59;100620.94;;;14.40;65.81
73628;BME280;61923;51.846;5.856;2023-01-13T13:48:51;100610.94;;;14.27;66.02
73628;BME280;61923;51.846;5.856;2023-01-13T13:51:25;100636.81;;;14.38;65.83
73628;BME280;61923;51.846;5.856;2023-01-13T13:53:52;100637.63;;;14.39;65.95
73628;BME280;61923;51.846;5.856;2023-01-13T13:56:22;100625.94;;;14.25;65.62
73628;BME280;61923;51.846;5.856;2023-01-13T13:58:48;100660.13;;;14.40;65.78
73628;BME280;61923;51.846;5.856;2023-01-13T14:01:28;100624.63;;;14.21;65.90
73628;BME280;61923;51.846;5.856;2023-01-13T14:04:17;100649.34;;;14.34;66.04
73628;BME280;61923;51.846;5.856;2023-01-13T14:06:54;100670.81;;;14.46;66.45
73628;BME280;61923;51.846;5.856;2023-01-13T14:09:21;100655.75;;;14.40;66.36
73628;BME280;61923;51.846;5.856;2023-01-13T14:12:00;100672.13;;;14.50;67.01
73628;BME280;61923;51.846;5.856;2023-01-13T14:14:26;100670.00;;;14.46;67.02
73628;BME280;61923;51.846;5.856;2023-01-13T14:16:52;100694.47;;;14.45;66.93
73628;BME280;61923;51.846;5.856;2023-01-13T14:19:29;100695.59;;;14.42;66.27
73628;BME280;61923;51.846;5.856;2023-01-13T14:21:56;100696.53;;;14.33;66.67
73628;BME280;61923;51.846;5.856;2023-01-13T14:24:23;100707.06;;;14.49;66.87
73628;BME280;61923;51.846;5.856;2023-01-13T14:26:50;100705.72;;;14.45;67.20
73628;BME280;61923;51.846;5.856;2023-01-13T14:29:21;100702.44;;;14.43;66.83
73628;BME280;61923;51.846;5.856;2023-01-13T14:31:52;100696.88;;;14.38;66.29
73628;BME280;61923;51.846;5.856;2023-01-13T14:34:20;100707.16;;;14.40;66.35
73628;BME280;61923;51.846;5.856;2023-01-13T14:36:47;100700.47;;;14.37;66.40
73628;BME280;61923;51.846;5.856;2023-01-13T14:46:39;100735.66;;;14.77;67.67
73628;BME280;61923;51.846;5.856;2023-01-13T14:49:10;100739.88;;;14.70;67.43
73628;BME280;61923;51.846;5.856;2023-01-13T14:51:46;100740.13;;;14.59;67.56
73628;BME280;61923;51.846;5.856;2023-01-13T14:57:25;100745.59;;;14.47;66.81
73628;BME280;61923;51.846;5.856;2023-01-13T15:07:57;100756.25;;;14.28;66.57
73628;BME280;61923;51.846;5.856;2023-01-13T15:10:26;100787.19;;;14.41;66.19
73628;BME280;61923;51.846;5.856;2023-01-13T15:12:54;100766.75;;;14.36;66.50
73628;BME280;61923;51.846;5.856;2023-01-13T15:15:24;100772.41;;;14.31;66.46
73628;BME280;61923;51.846;5.856;2023-01-13T15:17:50;100778.16;;;14.35;66.17
73628;BME280;61923;51.846;5.856;2023-01-13T15:20:18;100801.59;;;14.45;66.39
73628;BME280;61923;51.846;5.856;2023-01-13T15:22:45;100805.63;;;14.39;66.38
73628;BME280;61923;51.846;5.856;2023-01-13T15:25:13;100800.63;;;14.46;65.94
73628;BME280;61923;51.846;5.856;2023-01-13T15:27:40;100807.09;;;14.42;66.06